sensor_id;sensor_type;location;lat;lon;timestamp;P1;durP1;ratioP1;P2;durP2;ratioP2
19814;SDS011;10067;53.092;8.800;2023-04-03T00:01:48;4.87;;;2.13;;
19814;SDS011;10067;53.092;8.800;2023-04-03T00:04:14;7.77;;;2.17;;
19814;SDS011;10067;53.092;8.800;2023-04-03T00:06:41;6.57;;;1.97;;
19814;SDS011;10067;53.092;8.800;2023-04-03T00:09:07;4.57;;;2.30;;
19814;SDS011;10067;53.092;8.800;2023-04-03T00:11:34;7.03;;;2.70;;
19814;SDS011;10067;53.092;8.800;2023-04-03T00:14:00;6.97;;;2.53;;
19814;SDS011;10067;53.092;8.800;2023-04-03T00:16:28;5.03;;;2.73;;
19814;SDS011;10067;53.092;8.800;2023-04-03T00:18:54;11.50;;;3.10;;
19814;SDS011;10067;53.092;8.800;2023-04-03T00:21:21;8.43;;;2.47;;
19814;SDS011;10067;53.092;8.800;2023-04-03T00:23:47;5.70;;;2.20;;
19814;SDS011;10067;53.092;8.800;2023-04-03T00:26:14;8.53;;;2.63;;
19814;SDS011;10067;53.092;8.800;2023-04-03T00:28:40;5.23;;;2.37;;
19814;SDS011;10067;53.092;8.800;2023-04-03T00:31:06;5.30;;;2.70;;
19814;SDS011;10067;53.092;8.800;2023-04-03T00:33:34;6.30;;;2.50;;
19814;SDS011;10067;53.092;8.800;2023-04-03T00:36:04;14.90;;;3.03;;
19814;SDS011;10067;53.092;8.800;2023-04-03T00:38:31;9.37;;;2.80;;
19814;SDS011;10067;53.092;8.800;2023-04-03T00:40:57;7.10;;;2.40;;
19814;SDS011;10067;53.092;8.800;2023-04-03T00:43:24;8.63;;;2.97;;
19814;SDS011;10067;53.092;8.800;2023-04-03T00:45:52;13.13;;;3.03;;
19814;SDS011;10067;53.092;8.800;2023-04-03T00:48:20;5.47;;;2.33;;
19814;SDS011;10067;53.092;8.800;2023-04-03T00:50:48;11.13;;;2.93;;
19814;SDS011;10067;53.092;8.800;2023-04-03T00:53:16;7.40;;;3.00;;
19814;SDS011;10067;53.092;8.800;2023-04-03T00:55:44;6.90;;;3.10;;
19814;SDS011;10067;53.092;8.800;2023-04-03T00:58:11;8.47;;;3.20;;
19814;SDS011;10067;53.092;8.800;2023-04-03T01:00:38;7.00;;;2.80;;
19814;SDS011;10067;53.092;8.800;2023-04-03T01:03:06;5.50;;;2.43;;
19814;SDS011;10067;53.092;8.800;2023-04-03T01:05:32;9.33;;;3.37;;
19814;SDS011;10067;53.092;8.800;2023-04-03T01:08:00;7.17;;;2.90;;
19814;SDS011;10067;53.092;8.800;2023-04-03T01:10:27;8.20;;;3.20;;
19814;SDS011;10067;53.092;8.800;2023-04-03T01:12:53;7.67;;;2.90;;
19814;SDS011;10067;53.092;8.800;2023-04-03T01:15:21;7.10;;;2.90;;
19814;SDS011;10067;53.092;8.800;2023-04-03T01:17:48;9.87;;;2.80;;
19814;SDS011;10067;53.092;8.800;2023-04-03T01:23:04;6.73;;;2.87;;
19814;SDS011;10067;53.092;8.800;2023-04-03T01:25:32;10.50;;;2.63;;
19814;SDS011;10067;53.092;8.800;2023-04-03T01:27:59;5.77;;;2.87;;
19814;SDS011;10067;53.092;8.800;2023-04-03T01:30:27;7.07;;;2.43;;
19814;SDS011;10067;53.092;8.800;2023-04-03T01:32:58;11.67;;;2.93;;
19814;SDS011;10067;53.092;8.800;2023-04-03T01:35:24;7.40;;;3.00;;
19814;SDS011;10067;53.092;8.800;2023-04-03T01:37:51;13.30;;;3.83;;
19814;SDS011;10067;53.092;8.800;2023-04-03T01:40:17;7.93;;;2.57;;
19814;SDS011;10067;53.092;8.800;2023-04-03T01:42:43;9.37;;;2.80;;
19814;SDS011;10067;53.092;8.800;2023-04-03T01:45:10;9.17;;;2.83;;
19814;SDS011;10067;53.092;8.800;2023-04-03T01:47:36;8.53;;;2.83;;
19814;SDS011;10067;53.092;8.800;2023-04-03T01:50:05;8.93;;;2.80;;
19814;SDS011;10067;53.092;8.800;2023-04-03T01:52:31;7.83;;;2.83;;
19814;SDS011;10067;53.092;8.800;2023-04-03T01:54:58;10.60;;;2.90;;
19814;SDS011;10067;53.092;8.800;2023-04-03T01:57:24;6.30;;;2.60;;
19814;SDS011;10067;53.092;8.800;2023-04-03T01:59:51;10.00;;;3.37;;
19814;SDS011;10067;53.092;8.800;2023-04-03T02:02:17;9.70;;;3.10;;
19814;SDS011;10067;53.092;8.800;2023-04-03T02:04:45;7.87;;;3.23;;
19814;SDS011;10067;53.092;8.800;2023-04-03T02:07:13;15.40;;;3.50;;
19814;SDS011;10067;53.092;8.800;2023-04-03T02:09:39;4.47;;;2.37;;
19814;SDS011;10067;53.092;8.800;2023-04-03T02:12:06;8.87;;;2.97;;
19814;SDS011;10067;53.092;8.800;2023-04-03T02:14:32;8.33;;;3.07;;
19814;SDS011;10067;53.092;8.800;2023-04-03T02:16:59;12.60;;;3.10;;
19814;SDS011;10067;53.092;8.800;2023-04-03T02:19:26;6.60;;;3.00;;
19814;SDS011;10067;53.092;8.800;2023-04-03T02:21:52;16.87;;;3.77;;
19814;SDS011;10067;53.092;8.800;2023-04-03T02:24:20;10.10;;;2.77;;
19814;SDS011;10067;53.092;8.800;2023-04-03T02:26:46;9.30;;;3.10;;
19814;SDS011;10067;53.092;8.800;2023-04-03T02:29:13;10.90;;;3.47;;
19814;SDS011;10067;53.092;8.800;2023-04-03T02:31:39;10.87;;;3.13;;
19814;SDS011;10067;53.092;8.800;2023-04-03T02:34:06;7.93;;;2.80;;
19814;SDS011;10067;53.092;8.800;2023-04-03T02:36:32;9.10;;;3.33;;
19814;SDS011;10067;53.092;8.800;2023-04-03T02:38:58;7.87;;;3.20;;
19814;SDS011;10067;53.092;8.800;2023-04-03T02:41:26;10.17;;;3.07;;
19814;SDS011;10067;53.092;8.800;2023-04-03T02:43:58;8.10;;;3.00;;
19814;SDS011;10067;53.092;8.800;2023-04-03T02:46:25;9.17;;;3.20;;
19814;SDS011;10067;53.092;8.800;2023-04-03T02:48:51;7.27;;;3.33;;
19814;SDS011;10067;53.092;8.800;2023-04-03T02:51:17;5.80;;;2.80;;
19814;SDS011;10067;53.092;8.800;2023-04-03T02:53:44;6.80;;;3.40;;
19814;SDS011;10067;53.092;8.800;2023-04-03T02:56:10;11.10;;;3.77;;
19814;SDS011;10067;53.092;8.800;2023-04-03T02:58:38;8.73;;;3.50;;
19814;SDS011;10067;53.092;8.800;2023-04-03T03:01:05;9.90;;;3.43;;
19814;SDS011;10067;53.092;8.800;2023-04-03T03:03:31;10.03;;;3.77;;
19814;SDS011;10067;53.092;8.800;2023-04-03T03:06:01;8.77;;;3.40;;
19814;SDS011;10067;53.092;8.800;2023-04-03T03:08:28;10.17;;;3.13;;
19814;SDS011;10067;53.092;8.800;2023-04-03T03:10:54;7.73;;;3.00;;
19814;SDS011;10067;53.092;8.800;2023-04-03T03:13:21;8.50;;;3.23;;
19814;SDS011;10067;53.092;8.800;2023-04-03T03:15:48;9.13;;;3.23;;
19814;SDS011;10067;53.092;8.800;2023-04-03T03:18:15;11.50;;;3.47;;
19814;SDS011;10067;53.092;8.800;2023-04-03T03:20:41;6.73;;;3.10;;
19814;SDS011;10067;53.092;8.800;2023-04-03T03:23:08;8.20;;;3.53;;
19814;SDS011;10067;53.092;8.800;2023-04-03T03:25:37;8.83;;;3.40;;
19814;SDS011;10067;53.092;8.800;2023-04-03T03:28:03;10.43;;;3.83;;
19814;SDS011;10067;53.092;8.800;2023-04-03T03:30:30;9.00;;;4.00;;
19814;SDS011;10067;53.092;8.800;2023-04-03T03:32:58;10.67;;;3.50;;
19814;SDS011;10067;53.092;8.800;2023-04-03T03:35:24;10.33;;;3.97;;
19814;SDS011;10067;53.092;8.800;2023-04-03T03:37:51;8.80;;;3.20;;
19814;SDS011;10067;53.092;8.800;2023-04-03T03:40:17;14.40;;;3.93;;
19814;SDS011;10067;53.092;8.800;2023-04-03T03:42:43;9.97;;;3.50;;
19814;SDS011;10067;53.092;8.800;2023-04-03T03:45:10;7.70;;;3.20;;
19814;SDS011;10067;53.092;8.800;2023-04-03T03:47:36;7.43;;;3.90;;
19814;SDS011;10067;53.092;8.800;2023-04-03T03:50:05;10.60;;;3.40;;
19814;SDS011;10067;53.092;8.800;2023-04-03T03:52:31;13.27;;;4.03;;
19814;SDS011;10067;53.092;8.800;2023-04-03T03:54:58;8.40;;;4.00;;
19814;SDS011;10067;53.092;8.800;2023-04-03T03:57:24;9.47;;;3.53;;
19814;SDS011;10067;53.092;8.800;2023-04-03T03:59:53;8.40;;;3.53;;
19814;SDS011;10067;53.092;8.800;2023-04-03T04:02:20;13.43;;;4.37;;
19814;SDS011;10067;53.092;8.800;2023-04-03T04:04:46;9.37;;;3.93;;
19814;SDS011;10067;53.092;8.800;2023-04-03T04:07:14;12.03;;;3.53;;
19814;SDS011;10067;53.092;8.800;2023-04-03T04:09:40;8.80;;;4.27;;
19814;SDS011;10067;53.092;8.800;2023-04-03T04:12:07;8.63;;;3.77;;
19814;SDS011;10067;53.092;8.800;2023-04-03T04:14:33;6.33;;;3.37;;
19814;SDS011;10067;53.092;8.800;2023-04-03T04:17:00;10.67;;;3.87;;
19814;SDS011;10067;53.092;8.800;2023-04-03T04:19:27;10.33;;;3.77;;
19814;SDS011;10067;53.092;8.800;2023-04-03T04:21:53;8.80;;;3.43;;
19814;SDS011;10067;53.092;8.800;2023-04-03T04:24:21;11.60;;;4.20;;
19814;SDS011;10067;53.092;8.800;2023-04-03T04:26:48;14.20;;;4.70;;
19814;SDS011;10067;53.092;8.800;2023-04-03T04:29:15;10.77;;;4.37;;
19814;SDS011;10067;53.092;8.800;2023-04-03T04:31:41;10.63;;;4.37;;
19814;SDS011;10067;53.092;8.800;2023-04-03T04:34:07;10.60;;;3.93;;
19814;SDS011;10067;53.092;8.800;2023-04-03T04:36:34;12.13;;;4.07;;
19814;SDS011;10067;53.092;8.800;2023-04-03T04:39:00;8.87;;;3.17;;
19814;SDS011;10067;53.092;8.800;2023-04-03T04:41:28;9.23;;;3.43;;
19814;SDS011;10067;53.092;8.800;2023-04-03T04:43:55;6.10;;;3.50;;
19814;SDS011;10067;53.092;8.800;2023-04-03T04:46:21;12.53;;;4.23;;
19814;SDS011;10067;53.092;8.800;2023-04-03T04:48:48;11.83;;;4.97;;
19814;SDS011;10067;53.092;8.800;2023-04-03T04:51:14;15.67;;;4.73;;
19814;SDS011;10067;53.092;8.800;2023-04-03T04:53:41;11.43;;;4.73;;
19814;SDS011;10067;53.092;8.800;2023-04-03T04:56:08;11.30;;;4.60;;
19814;SDS011;10067;53.092;8.800;2023-04-03T04:58:36;9.70;;;4.87;;
19814;SDS011;10067;53.092;8.800;2023-04-03T05:01:03;11.67;;;4.67;;
19814;SDS011;10067;53.092;8.800;2023-04-03T05:03:30;15.93;;;4.60;;
19814;SDS011;10067;53.092;8.800;2023-04-03T05:05:57;9.80;;;4.03;;
19814;SDS011;10067;53.092;8.800;2023-04-03T05:08:23;13.07;;;5.00;;
19814;SDS011;10067;53.092;8.800;2023-04-03T05:10:50;12.67;;;4.57;;
19814;SDS011;10067;53.092;8.800;2023-04-03T05:13:16;10.57;;;3.90;;
19814;SDS011;10067;53.092;8.800;2023-04-03T05:15:44;11.10;;;4.50;;
19814;SDS011;10067;53.092;8.800;2023-04-03T05:18:11;11.03;;;4.00;;
19814;SDS011;10067;53.092;8.800;2023-04-03T05:20:37;9.70;;;4.00;;
19814;SDS011;10067;53.092;8.800;2023-04-03T05:23:04;12.23;;;4.97;;
19814;SDS011;10067;53.092;8.800;2023-04-03T05:25:31;13.80;;;4.37;;
19814;SDS011;10067;53.092;8.800;2023-04-03T05:27:58;8.23;;;3.93;;
19814;SDS011;10067;53.092;8.800;2023-04-03T05:30:24;9.13;;;5.40;;
19814;SDS011;10067;53.092;8.800;2023-04-03T05:32:52;7.03;;;3.73;;
19814;SDS011;10067;53.092;8.800;2023-04-03T05:35:18;9.07;;;4.90;;
19814;SDS011;10067;53.092;8.800;2023-04-03T05:37:45;8.17;;;4.33;;
19814;SDS011;10067;53.092;8.800;2023-04-03T05:40:11;11.00;;;4.60;;
19814;SDS011;10067;53.092;8.800;2023-04-03T05:42:37;9.37;;;4.00;;
19814;SDS011;10067;53.092;8.800;2023-04-03T05:45:04;7.93;;;3.80;;
19814;SDS011;10067;53.092;8.800;2023-04-03T05:47:31;10.07;;;5.00;;
19814;SDS011;10067;53.092;8.800;2023-04-03T05:49:59;11.47;;;4.20;;
19814;SDS011;10067;53.092;8.800;2023-04-03T05:52:25;8.93;;;3.73;;
19814;SDS011;10067;53.092;8.800;2023-04-03T05:54:52;11.50;;;4.23;;
19814;SDS011;10067;53.092;8.800;2023-04-03T05:57:19;13.03;;;4.07;;
19814;SDS011;10067;53.092;8.800;2023-04-03T05:59:46;14.10;;;4.87;;
19814;SDS011;10067;53.092;8.800;2023-04-03T06:02:13;11.67;;;4.80;;
19814;SDS011;10067;53.092;8.800;2023-04-03T06:04:40;9.70;;;4.30;;
19814;SDS011;10067;53.092;8.800;2023-04-03T06:07:08;10.80;;;5.27;;
19814;SDS011;10067;53.092;8.800;2023-04-03T06:09:36;14.03;;;5.03;;
19814;SDS011;10067;53.092;8.800;2023-04-03T06:12:02;8.37;;;4.00;;
19814;SDS011;10067;53.092;8.800;2023-04-03T06:14:29;13.87;;;4.03;;
19814;SDS011;10067;53.092;8.800;2023-04-03T06:16:55;7.17;;;4.17;;
19814;SDS011;10067;53.092;8.800;2023-04-03T06:19:22;8.93;;;3.80;;
19814;SDS011;10067;53.092;8.800;2023-04-03T06:21:48;8.93;;;4.17;;
19814;SDS011;10067;53.092;8.800;2023-04-03T06:24:16;10.30;;;4.20;;
19814;SDS011;10067;53.092;8.800;2023-04-03T06:26:43;16.43;;;4.70;;
19814;SDS011;10067;53.092;8.800;2023-04-03T06:29:10;11.23;;;4.57;;
19814;SDS011;10067;53.092;8.800;2023-04-03T06:31:37;15.30;;;5.00;;
19814;SDS011;10067;53.092;8.800;2023-04-03T06:34:04;13.17;;;4.90;;
19814;SDS011;10067;53.092;8.800;2023-04-03T06:36:31;11.97;;;4.40;;
19814;SDS011;10067;53.092;8.800;2023-04-03T06:38:57;8.57;;;3.97;;
19814;SDS011;10067;53.092;8.800;2023-04-03T06:41:25;14.93;;;4.93;;
19814;SDS011;10067;53.092;8.800;2023-04-03T06:43:52;7.33;;;3.77;;
19814;SDS011;10067;53.092;8.800;2023-04-03T06:46:19;7.77;;;4.30;;
19814;SDS011;10067;53.092;8.800;2023-04-03T06:48:45;10.20;;;3.97;;
19814;SDS011;10067;53.092;8.800;2023-04-03T06:51:15;14.60;;;3.77;;
19814;SDS011;10067;53.092;8.800;2023-04-03T06:53:43;10.57;;;3.90;;
19814;SDS011;10067;53.092;8.800;2023-04-03T06:56:09;8.70;;;3.97;;
19814;SDS011;10067;53.092;8.800;2023-04-03T06:58:38;10.63;;;3.97;;
19814;SDS011;10067;53.092;8.800;2023-04-03T07:01:04;8.97;;;4.07;;
19814;SDS011;10067;53.092;8.800;2023-04-03T07:03:31;9.40;;;4.00;;
19814;SDS011;10067;53.092;8.800;2023-04-03T07:05:57;11.80;;;4.10;;
19814;SDS011;10067;53.092;8.800;2023-04-03T07:08:23;11.87;;;3.37;;
19814;SDS011;10067;53.092;8.800;2023-04-03T07:10:51;9.13;;;3.70;;
19814;SDS011;10067;53.092;8.800;2023-04-03T07:13:17;7.40;;;3.60;;
19814;SDS011;10067;53.092;8.800;2023-04-03T07:15:45;9.20;;;3.13;;
19814;SDS011;10067;53.092;8.800;2023-04-03T07:18:11;6.50;;;3.60;;
19814;SDS011;10067;53.092;8.800;2023-04-03T07:20:38;10.23;;;3.70;;
19814;SDS011;10067;53.092;8.800;2023-04-03T07:23:05;8.13;;;3.53;;
19814;SDS011;10067;53.092;8.800;2023-04-03T07:25:31;6.60;;;3.07;;
19814;SDS011;10067;53.092;8.800;2023-04-03T07:27:58;10.77;;;3.20;;
19814;SDS011;10067;53.092;8.800;2023-04-03T07:30:25;6.77;;;2.93;;
19814;SDS011;10067;53.092;8.800;2023-04-03T07:32:53;10.53;;;2.97;;
19814;SDS011;10067;53.092;8.800;2023-04-03T07:35:19;9.90;;;2.80;;
19814;SDS011;10067;53.092;8.800;2023-04-03T07:37:46;8.17;;;2.27;;
19814;SDS011;10067;53.092;8.800;2023-04-03T07:40:12;8.20;;;2.53;;
19814;SDS011;10067;53.092;8.800;2023-04-03T07:42:38;7.20;;;1.83;;
19814;SDS011;10067;53.092;8.800;2023-04-03T07:45:05;7.23;;;2.13;;
19814;SDS011;10067;53.092;8.800;2023-04-03T07:47:32;5.90;;;2.10;;
19814;SDS011;10067;53.092;8.800;2023-04-03T07:49:59;7.50;;;2.10;;
19814;SDS011;10067;53.092;8.800;2023-04-03T07:52:26;6.63;;;2.23;;
19814;SDS011;10067;53.092;8.800;2023-04-03T07:54:52;7.23;;;2.50;;
19814;SDS011;10067;53.092;8.800;2023-04-03T07:57:19;8.23;;;2.37;;
19814;SDS011;10067;53.092;8.800;2023-04-03T07:59:45;9.47;;;2.10;;
19814;SDS011;10067;53.092;8.800;2023-04-03T08:02:12;6.33;;;1.90;;
19814;SDS011;10067;53.092;8.800;2023-04-03T08:04:38;6.80;;;2.20;;
19814;SDS011;10067;53.092;8.800;2023-04-03T08:07:06;4.13;;;2.03;;
19814;SDS011;10067;53.092;8.800;2023-04-03T08:09:32;4.03;;;1.80;;
19814;SDS011;10067;53.092;8.800;2023-04-03T08:11:59;3.60;;;1.53;;
19814;SDS011;10067;53.092;8.800;2023-04-03T08:14:26;4.57;;;1.83;;
19814;SDS011;10067;53.092;8.800;2023-04-03T08:16:52;7.30;;;2.17;;
19814;SDS011;10067;53.092;8.800;2023-04-03T08:19:19;3.53;;;1.60;;
19814;SDS011;10067;53.092;8.800;2023-04-03T08:21:45;4.40;;;1.67;;
19814;SDS011;10067;53.092;8.800;2023-04-03T08:24:13;5.03;;;1.50;;
19814;SDS011;10067;53.092;8.800;2023-04-03T08:26:39;5.53;;;1.60;;
19814;SDS011;10067;53.092;8.800;2023-04-03T08:29:06;3.23;;;1.40;;
19814;SDS011;10067;53.092;8.800;2023-04-03T08:31:32;3.30;;;1.40;;
19814;SDS011;10067;53.092;8.800;2023-04-03T08:33:58;3.33;;;1.20;;
19814;SDS011;10067;53.092;8.800;2023-04-03T08:36:26;4.17;;;1.77;;
19814;SDS011;10067;53.092;8.800;2023-04-03T08:38:53;5.33;;;1.33;;
19814;SDS011;10067;53.092;8.800;2023-04-03T08:41:25;3.27;;;1.30;;
19814;SDS011;10067;53.092;8.800;2023-04-03T08:43:56;2.17;;;1.13;;
19814;SDS011;10067;53.092;8.800;2023-04-03T08:46:25;6.20;;;1.70;;
19814;SDS011;10067;53.092;8.800;2023-04-03T08:48:54;3.97;;;1.40;;
19814;SDS011;10067;53.092;8.800;2023-04-03T08:51:21;6.73;;;1.57;;
19814;SDS011;10067;53.092;8.800;2023-04-03T08:53:51;3.23;;;1.50;;
19814;SDS011;10067;53.092;8.800;2023-04-03T08:56:22;4.50;;;1.13;;
19814;SDS011;10067;53.092;8.800;2023-04-03T08:58:51;1.97;;;0.90;;
19814;SDS011;10067;53.092;8.800;2023-04-03T09:01:20;4.20;;;1.37;;
19814;SDS011;10067;53.092;8.800;2023-04-03T09:03:48;2.07;;;0.90;;
19814;SDS011;10067;53.092;8.800;2023-04-03T09:06:15;3.63;;;1.40;;
19814;SDS011;10067;53.092;8.800;2023-04-03T09:08:43;3.73;;;1.30;;
19814;SDS011;10067;53.092;8.800;2023-04-03T09:11:12;2.03;;;0.90;;
19814;SDS011;10067;53.092;8.800;2023-04-03T09:13:45;2.70;;;1.10;;
19814;SDS011;10067;53.092;8.800;2023-04-03T09:16:19;1.40;;;0.95;;
19814;SDS011;10067;53.092;8.800;2023-04-03T09:18:48;3.47;;;1.40;;
19814;SDS011;10067;53.092;8.800;2023-04-03T09:21:17;2.30;;;1.30;;
19814;SDS011;10067;53.092;8.800;2023-04-03T09:23:47;6.30;;;3.08;;
19814;SDS011;10067;53.092;8.800;2023-04-03T09:26:16;5.10;;;2.53;;
19814;SDS011;10067;53.092;8.800;2023-04-03T09:28:45;6.20;;;3.67;;
19814;SDS011;10067;53.092;8.800;2023-04-03T09:31:16;3.47;;;2.00;;
19814;SDS011;10067;53.092;8.800;2023-04-03T09:33:43;3.85;;;1.65;;
19814;SDS011;10067;53.092;8.800;2023-04-03T09:36:10;5.70;;;3.58;;
19814;SDS011;10067;53.092;8.800;2023-04-03T09:38:36;5.18;;;3.92;;
19814;SDS011;10067;53.092;8.800;2023-04-03T09:41:05;4.70;;;1.73;;
19814;SDS011;10067;53.092;8.800;2023-04-03T09:43:32;3.65;;;1.92;;
19814;SDS011;10067;53.092;8.800;2023-04-03T09:48:42;4.10;;;1.20;;
19814;SDS011;10067;53.092;8.800;2023-04-03T09:51:15;4.13;;;1.48;;
19814;SDS011;10067;53.092;8.800;2023-04-03T09:53:42;2.38;;;1.58;;
19814;SDS011;10067;53.092;8.800;2023-04-03T09:56:18;2.70;;;1.10;;
19814;SDS011;10067;53.092;8.800;2023-04-03T09:58:47;5.20;;;1.80;;
19814;SDS011;10067;53.092;8.800;2023-04-03T10:01:20;3.65;;;1.25;;
19814;SDS011;10067;53.092;8.800;2023-04-03T10:03:48;6.30;;;2.38;;
19814;SDS011;10067;53.092;8.800;2023-04-03T10:06:29;3.33;;;1.23;;
19814;SDS011;10067;53.092;8.800;2023-04-03T10:08:58;4.72;;;1.15;;
19814;SDS011;10067;53.092;8.800;2023-04-03T10:11:26;2.05;;;1.00;;
19814;SDS011;10067;53.092;8.800;2023-04-03T10:13:53;3.55;;;1.20;;
19814;SDS011;10067;53.092;8.800;2023-04-03T10:16:21;4.15;;;1.00;;
19814;SDS011;10067;53.092;8.800;2023-04-03T10:18:55;4.20;;;1.60;;
19814;SDS011;10067;53.092;8.800;2023-04-03T10:21:26;1.95;;;1.10;;
19814;SDS011;10067;53.092;8.800;2023-04-03T10:23:57;3.38;;;1.10;;
19814;SDS011;10067;53.092;8.800;2023-04-03T10:26:29;1.65;;;1.10;;
19814;SDS011;10067;53.092;8.800;2023-04-03T10:29:01;2.78;;;1.08;;
19814;SDS011;10067;53.092;8.800;2023-04-03T10:31:29;2.33;;;1.08;;
19814;SDS011;10067;53.092;8.800;2023-04-03T10:34:00;2.72;;;1.25;;
19814;SDS011;10067;53.092;8.800;2023-04-03T10:36:33;2.28;;;1.05;;
19814;SDS011;10067;53.092;8.800;2023-04-03T10:39:02;4.05;;;1.13;;
19814;SDS011;10067;53.092;8.800;2023-04-03T10:41:34;4.20;;;1.58;;
19814;SDS011;10067;53.092;8.800;2023-04-03T10:44:08;2.05;;;1.10;;
19814;SDS011;10067;53.092;8.800;2023-04-03T10:46:38;2.75;;;1.25;;
19814;SDS011;10067;53.092;8.800;2023-04-03T10:51:55;2.35;;;1.00;;
19814;SDS011;10067;53.092;8.800;2023-04-03T10:54:26;4.63;;;1.00;;
19814;SDS011;10067;53.092;8.800;2023-04-03T10:56:57;3.92;;;1.40;;
19814;SDS011;10067;53.092;8.800;2023-04-03T10:59:26;4.00;;;1.83;;
19814;SDS011;10067;53.092;8.800;2023-04-03T11:01:55;4.03;;;1.10;;
19814;SDS011;10067;53.092;8.800;2023-04-03T11:04:23;7.35;;;1.60;;
19814;SDS011;10067;53.092;8.800;2023-04-03T11:06:51;3.30;;;1.20;;
19814;SDS011;10067;53.092;8.800;2023-04-03T11:09:23;3.80;;;1.55;;
19814;SDS011;10067;53.092;8.800;2023-04-03T11:11:51;5.28;;;1.55;;
19814;SDS011;10067;53.092;8.800;2023-04-03T11:14:22;2.80;;;1.02;;
19814;SDS011;10067;53.092;8.800;2023-04-03T11:16:52;3.45;;;1.38;;
19814;SDS011;10067;53.092;8.800;2023-04-03T11:19:22;2.95;;;1.33;;
19814;SDS011;10067;53.092;8.800;2023-04-03T11:21:56;3.70;;;1.42;;
19814;SDS011;10067;53.092;8.800;2023-04-03T11:24:25;3.03;;;1.17;;
19814;SDS011;10067;53.092;8.800;2023-04-03T11:26:54;3.50;;;1.40;;
19814;SDS011;10067;53.092;8.800;2023-04-03T11:29:22;4.28;;;1.70;;
19814;SDS011;10067;53.092;8.800;2023-04-03T11:31:56;3.20;;;1.45;;
19814;SDS011;10067;53.092;8.800;2023-04-03T11:34:29;2.22;;;1.33;;
19814;SDS011;10067;53.092;8.800;2023-04-03T11:37:01;2.33;;;1.30;;
19814;SDS011;10067;53.092;8.800;2023-04-03T11:39:33;3.53;;;1.60;;
19814;SDS011;10067;53.092;8.800;2023-04-03T11:42:13;2.08;;;1.10;;
19814;SDS011;10067;53.092;8.800;2023-04-03T11:44:40;3.25;;;1.52;;
19814;SDS011;10067;53.092;8.800;2023-04-03T11:47:07;2.75;;;1.67;;
19814;SDS011;10067;53.092;8.800;2023-04-03T11:55:35;3.15;;;1.42;;
19814;SDS011;10067;53.092;8.800;2023-04-03T11:58:09;4.80;;;1.55;;
19814;SDS011;10067;53.092;8.800;2023-04-03T12:09:04;2.90;;;1.80;;
19814;SDS011;10067;53.092;8.800;2023-04-03T12:11:41;2.83;;;1.35;;
19814;SDS011;10067;53.092;8.800;2023-04-03T12:14:13;8.10;;;1.30;;
19814;SDS011;10067;53.092;8.800;2023-04-03T12:16:42;4.05;;;1.45;;
19814;SDS011;10067;53.092;8.800;2023-04-03T12:22:13;6.50;;;2.13;;
19814;SDS011;10067;53.092;8.800;2023-04-03T12:24:40;4.03;;;1.70;;
19814;SDS011;10067;53.092;8.800;2023-04-03T12:29:51;5.13;;;2.20;;
19814;SDS011;10067;53.092;8.800;2023-04-03T12:32:23;3.35;;;1.30;;
19814;SDS011;10067;53.092;8.800;2023-04-03T12:34:57;4.45;;;1.67;;
19814;SDS011;10067;53.092;8.800;2023-04-03T12:37:34;4.07;;;1.65;;
19814;SDS011;10067;53.092;8.800;2023-04-03T12:40:07;6.65;;;1.73;;
19814;SDS011;10067;53.092;8.800;2023-04-03T12:42:55;3.08;;;1.52;;
19814;SDS011;10067;53.092;8.800;2023-04-03T12:45:28;3.05;;;1.25;;
19814;SDS011;10067;53.092;8.800;2023-04-03T12:47:55;4.28;;;1.52;;
19814;SDS011;10067;53.092;8.800;2023-04-03T12:50:22;4.10;;;1.52;;
19814;SDS011;10067;53.092;8.800;2023-04-03T12:52:51;3.58;;;1.65;;
19814;SDS011;10067;53.092;8.800;2023-04-03T12:55:20;3.78;;;1.85;;
19814;SDS011;10067;53.092;8.800;2023-04-03T12:57:47;5.78;;;2.83;;
19814;SDS011;10067;53.092;8.800;2023-04-03T13:00:21;6.78;;;3.22;;
19814;SDS011;10067;53.092;8.800;2023-04-03T13:02:49;10.27;;;3.60;;
19814;SDS011;10067;53.092;8.800;2023-04-03T13:05:16;5.03;;;2.80;;
19814;SDS011;10067;53.092;8.800;2023-04-03T13:07:43;6.53;;;2.63;;
19814;SDS011;10067;53.092;8.800;2023-04-03T13:10:14;9.85;;;4.15;;
19814;SDS011;10067;53.092;8.800;2023-04-03T13:12:48;5.35;;;2.70;;
19814;SDS011;10067;53.092;8.800;2023-04-03T13:15:16;13.93;;;3.60;;
19814;SDS011;10067;53.092;8.800;2023-04-03T13:17:43;3.25;;;1.80;;
19814;SDS011;10067;53.092;8.800;2023-04-03T13:20:11;4.85;;;2.88;;
19814;SDS011;10067;53.092;8.800;2023-04-03T13:22:39;11.00;;;1.90;;
19814;SDS011;10067;53.092;8.800;2023-04-03T13:25:09;5.00;;;2.38;;
19814;SDS011;10067;53.092;8.800;2023-04-03T13:27:37;7.43;;;2.10;;
19814;SDS011;10067;53.092;8.800;2023-04-03T13:30:04;8.10;;;2.40;;
19814;SDS011;10067;53.092;8.800;2023-04-03T13:32:31;4.70;;;1.83;;
19814;SDS011;10067;53.092;8.800;2023-04-03T13:34:58;2.33;;;1.60;;
19814;SDS011;10067;53.092;8.800;2023-04-03T13:37:27;3.05;;;1.35;;
19814;SDS011;10067;53.092;8.800;2023-04-03T13:39:57;5.78;;;1.70;;
19814;SDS011;10067;53.092;8.800;2023-04-03T13:42:26;4.57;;;1.65;;
19814;SDS011;10067;53.092;8.800;2023-04-03T13:47:54;4.63;;;2.03;;
19814;SDS011;10067;53.092;8.800;2023-04-03T13:50:21;3.80;;;1.63;;
19814;SDS011;10067;53.092;8.800;2023-04-03T13:52:52;3.45;;;1.67;;
19814;SDS011;10067;53.092;8.800;2023-04-03T13:55:21;3.33;;;1.60;;
19814;SDS011;10067;53.092;8.800;2023-04-03T13:57:48;4.05;;;1.65;;
19814;SDS011;10067;53.092;8.800;2023-04-03T14:00:19;5.65;;;2.10;;
19814;SDS011;10067;53.092;8.800;2023-04-03T14:02:46;4.05;;;2.08;;
19814;SDS011;10067;53.092;8.800;2023-04-03T14:05:13;7.30;;;2.47;;
19814;SDS011;10067;53.092;8.800;2023-04-03T14:07:41;4.75;;;1.70;;
19814;SDS011;10067;53.092;8.800;2023-04-03T14:10:09;4.22;;;1.88;;
19814;SDS011;10067;53.092;8.800;2023-04-03T14:12:36;3.75;;;1.60;;
19814;SDS011;10067;53.092;8.800;2023-04-03T14:15:05;3.40;;;1.63;;
19814;SDS011;10067;53.092;8.800;2023-04-03T14:17:33;3.97;;;1.55;;
19814;SDS011;10067;53.092;8.800;2023-04-03T14:20:00;2.13;;;1.60;;
19814;SDS011;10067;53.092;8.800;2023-04-03T14:22:28;4.30;;;1.60;;
19814;SDS011;10067;53.092;8.800;2023-04-03T14:24:56;11.35;;;3.10;;
19814;SDS011;10067;53.092;8.800;2023-04-03T14:27:24;5.28;;;2.42;;
19814;SDS011;10067;53.092;8.800;2023-04-03T14:29:52;11.02;;;3.80;;
19814;SDS011;10067;53.092;8.800;2023-04-03T14:32:19;4.78;;;2.40;;
19814;SDS011;10067;53.092;8.800;2023-04-03T14:34:46;3.67;;;1.95;;
19814;SDS011;10067;53.092;8.800;2023-04-03T14:37:12;2.10;;;1.27;;
19814;SDS011;10067;53.092;8.800;2023-04-03T14:39:40;4.35;;;1.95;;
19814;SDS011;10067;53.092;8.800;2023-04-03T14:42:09;4.38;;;1.95;;
19814;SDS011;10067;53.092;8.800;2023-04-03T14:44:38;5.05;;;1.95;;
19814;SDS011;10067;53.092;8.800;2023-04-03T14:47:04;5.00;;;2.03;;
19814;SDS011;10067;53.092;8.800;2023-04-03T14:49:31;4.18;;;1.77;;
19814;SDS011;10067;53.092;8.800;2023-04-03T14:51:57;3.88;;;1.73;;
19814;SDS011;10067;53.092;8.800;2023-04-03T14:54:24;3.50;;;1.90;;
19814;SDS011;10067;53.092;8.800;2023-04-03T14:56:52;4.13;;;1.77;;
19814;SDS011;10067;53.092;8.800;2023-04-03T14:59:19;4.35;;;2.33;;
19814;SDS011;10067;53.092;8.800;2023-04-03T15:01:48;6.13;;;2.38;;
19814;SDS011;10067;53.092;8.800;2023-04-03T15:04:15;4.70;;;1.70;;
19814;SDS011;10067;53.092;8.800;2023-04-03T15:06:42;4.95;;;1.80;;
19814;SDS011;10067;53.092;8.800;2023-04-03T15:09:11;5.53;;;2.05;;
19814;SDS011;10067;53.092;8.800;2023-04-03T15:11:41;6.57;;;2.35;;
19814;SDS011;10067;53.092;8.800;2023-04-03T15:14:08;7.90;;;3.20;;
19814;SDS011;10067;53.092;8.800;2023-04-03T15:16:34;6.50;;;2.92;;
19814;SDS011;10067;53.092;8.800;2023-04-03T15:19:02;6.57;;;2.70;;
19814;SDS011;10067;53.092;8.800;2023-04-03T15:21:29;4.35;;;1.83;;